Time;durP1;ratioP1;P1;durP2;ratioP2;P2;SDS_P1;SDS_P2;PMS_P1;PMS_P2;Temp;Humidity;BMP_temperature;BMP_pressure;BME280_temperature;BME280_humidity;BME280_pressure;Samples;Min_cycle;Max_cycle;Signal;HPM_P1;HPM_P2
2024/01/01 00:01:31;;;;;;;42.75;20.15;;;9.40;99.90;;;;;;5045208;28;20060;-69
2024/01/01 00:03:56;;;;;;;35.83;17.00;;;9.50;99.90;;;;;;5035865;28;20025;-69
2024/01/01 00:06:22;;;;;;;30.92;14.65;;;9.50;99.90;;;;;;5041146;28;20426;-69
2024/01/01 00:08:48;;;;;;;26.33;12.20;;;9.50;99.90;;;;;;5033044;28;20094;-69
2024/01/01 00:11:13;;;;;;;21.40;10.70;;;9.50;99.90;;;;;;5054334;28;20459;-70
2024/01/01 00:13:39;;;;;;;22.92;10.43;;;9.50;99.90;;;;;;5042746;28;20035;-70
2024/01/01 00:16:05;;;;;;;24.75;10.80;;;9.50;99.90;;;;;;5033293;28;20032;-69
2024/01/01 00:18:30;;;;;;;18.08;7.10;;;9.50;99.90;;;;;;5054177;28;20026;-69
2024/01/01 00:20:56;;;;;;;17.30;6.85;;;9.50;99.90;;;;;;5043909;28;20075;-69
2024/01/01 00:23:22;;;;;;;17.45;7.90;;;9.50;99.90;;;;;;5038147;28;20029;-71
2024/01/01 00:25:48;;;;;;;17.20;7.90;;;9.50;99.90;;;;;;5059497;28;20025;-70
2024/01/01 00:28:14;;;;;;;14.75;6.85;;;9.50;99.90;;;;;;5057334;28;20515;-69
2024/01/01 00:30:39;;;;;;;16.98;6.38;;;9.50;99.90;;;;;;5051929;28;20016;-69
2024/01/01 00:33:05;;;;;;;15.50;6.15;;;9.40;99.90;;;;;;5055525;28;20102;-69
2024/01/01 00:35:31;;;;;;;15.30;4.93;;;9.40;99.90;;;;;;5042894;28;20044;-69
2024/01/01 00:37:57;;;;;;;8.50;4.40;;;9.30;99.90;;;;;;5054856;28;20048;-69
2024/01/01 00:40:23;;;;;;;10.75;4.30;;;9.30;99.90;;;;;;5033946;28;20405;-69
2024/01/01 00:42:49;;;;;;;14.20;4.85;;;9.30;99.90;;;;;;5059272;28;20553;-70
2024/01/01 00:45:14;;;;;;;13.10;5.60;;;9.30;99.90;;;;;;5058759;28;20023;-69
2024/01/01 00:47:40;;;;;;;12.32;4.57;;;9.20;99.90;;;;;;5051885;28;20021;-69
2024/01/01 00:50:06;;;;;;;10.68;3.97;;;9.20;99.90;;;;;;5055153;28;20048;-69
2024/01/01 00:52:31;;;;;;;13.10;4.22;;;9.20;99.90;;;;;;5049065;28;20032;-69
2024/01/01 00:54:57;;;;;;;10.27;3.28;;;9.20;99.90;;;;;;5057134;28;20035;-69
2024/01/01 00:57:23;;;;;;;8.38;3.10;;;9.20;99.90;;;;;;5060392;28;20034;-69
2024/01/01 00:59:48;;;;;;;7.75;2.78;;;9.20;99.90;;;;;;5052657;28;20028;-70
2024/01/01 01:02:14;;;;;;;8.05;2.58;;;9.20;99.90;;;;;;5053798;28;20021;-69
2024/01/01 01:04:45;;;;;;;3.28;1.35;;;9.10;99.90;;;;;;5046493;28;20009;-71
2024/01/01 01:07:11;;;;;;;2.72;1.20;;;9.10;99.90;;;;;;5036652;28;20025;-71
2024/01/01 01:09:37;;;;;;;5.25;2.08;;;9.10;99.90;;;;;;5060080;28;20017;-71
2024/01/01 01:12:03;;;;;;;4.43;2.03;;;9.10;99.90;;;;;;5049615;28;20019;-72
2024/01/01 01:14:28;;;;;;;6.38;1.85;;;9.00;99.90;;;;;;5057788;28;20063;-68
2024/01/01 01:16:54;;;;;;;8.45;2.05;;;9.00;99.90;;;;;;5051664;28;20496;-69
2024/01/01 01:19:19;;;;;;;5.93;2.00;;;9.00;99.90;;;;;;5056590;28;20525;-70
2024/01/01 01:21:45;;;;;;;5.93;1.98;;;8.90;99.90;;;;;;5059550;28;20830;-69
2024/01/01 01:24:15;;;;;;;6.18;2.00;;;8.80;99.90;;;;;;5053598;28;20579;-70
2024/01/01 01:26:42;;;;;;;5.97;2.05;;;8.80;99.90;;;;;;5051837;28;20029;-70
2024/01/01 01:29:09;;;;;;;5.28;2.20;;;8.70;99.90;;;;;;5038528;28;20037;-70
2024/01/01 01:31:35;;;;;;;5.35;2.00;;;8.60;99.90;;;;;;5053434;28;20132;-73
2024/01/01 01:34:01;;;;;;;8.18;2.08;;;8.60;99.90;;;;;;5059640;28;20031;-71
2024/01/01 01:36:27;;;;;;;6.97;2.10;;;8.50;99.90;;;;;;5037950;28;20733;-70
2024/01/01 01:38:52;;;;;;;4.57;1.63;;;8.50;99.90;;;;;;5033422;28;20076;-71
2024/01/01 01:41:18;;;;;;;5.80;1.90;;;8.40;99.90;;;;;;5057310;28;20113;-70
2024/01/01 01:43:44;;;;;;;6.45;1.88;;;8.40;99.90;;;;;;5014316;28;20379;-70
2024/01/01 01:46:11;;;;;;;5.30;1.88;;;8.40;99.90;;;;;;5062491;28;20013;-70
2024/01/01 01:48:37;;;;;;;6.82;2.25;;;8.30;99.90;;;;;;5062390;28;20034;-69
2024/01/01 01:51:02;;;;;;;7.03;2.17;;;8.30;99.90;;;;;;5054740;28;20020;-69
2024/01/01 01:53:30;;;;;;;7.15;2.13;;;8.30;99.90;;;;;;5040805;28;20091;-74
2024/01/01 01:55:58;;;;;;;7.22;2.20;;;8.30;99.90;;;;;;5045046;28;20020;-70
2024/01/01 01:58:24;;;;;;;8.32;2.70;;;8.20;99.90;;;;;;5058445;28;20098;-70
2024/01/01 02:00:51;;;;;;;6.25;2.42;;;8.20;99.90;;;;;;5054850;28;20494;-70
2024/01/01 02:03:17;;;;;;;7.00;2.28;;;8.20;99.90;;;;;;5044029;28;20029;-70
2024/01/01 02:05:43;;;;;;;6.88;2.50;;;8.10;99.90;;;;;;5057911;28;20074;-70
2024/01/01 02:08:09;;;;;;;8.80;3.38;;;8.20;99.90;;;;;;5055234;28;20028;-70
2024/01/01 02:10:34;;;;;;;7.95;2.85;;;8.10;99.90;;;;;;5057563;28;20025;-70
2024/01/01 02:13:00;;;;;;;7.82;2.95;;;8.10;99.90;;;;;;5034724;28;20033;-69
2024/01/01 02:15:26;;;;;;;8.52;2.72;;;8.10;99.90;;;;;;5044853;28;20487;-70
2024/01/01 02:17:52;;;;;;;9.90;2.58;;;8.10;99.90;;;;;;5060621;28;20029;-70
2024/01/01 02:20:18;;;;;;;9.10;2.65;;;8.10;99.90;;;;;;5054529;28;20414;-70
2024/01/01 02:22:46;;;;;;;8.88;2.40;;;8.10;99.90;;;;;;5059351;28;20556;-70
2024/01/01 02:25:12;;;;;;;8.13;2.97;;;8.10;99.90;;;;;;5050636;28;20017;-70
2024/01/01 02:27:39;;;;;;;8.50;2.38;;;8.10;99.90;;;;;;5043213;28;20051;-71
2024/01/01 02:30:10;;;;;;;6.38;2.63;;;8.10;99.90;;;;;;5044735;28;20056;-70
2024/01/01 02:32:39;;;;;;;;;;;8.10;99.90;;;;;;5024592;28;20032;-69
2024/01/01 02:35:07;;;;;;;10.35;2.22;;;8.10;99.90;;;;;;5055295;28;20008;-70
2024/01/01 02:37:36;;;;;;;9.52;2.58;;;8.10;99.90;;;;;;5044551;28;20033;-70
2024/01/01 02:40:02;;;;;;;9.63;2.30;;;8.10;99.90;;;;;;5030164;28;20035;-70
2024/01/01 02:42:29;;;;;;;8.80;2.30;;;8.10;99.90;;;;;;5062315;28;20028;-70
2024/01/01 02:44:55;;;;;;;10.35;2.53;;;8.20;99.90;;;;;;5058197;28;20051;-69
2024/01/01 02:47:20;;;;;;;9.18;1.80;;;8.20;99.90;;;;;;5054484;28;20060;-70
2024/01/01 02:49:46;;;;;;;10.27;2.63;;;8.20;99.90;;;;;;5060088;28;20025;-70
2024/01/01 02:52:12;;;;;;;10.32;2.22;;;8.20;99.90;;;;;;5061664;28;20028;-69
2024/01/01 02:54:37;;;;;;;14.43;3.05;;;8.10;99.90;;;;;;5040399;28;20099;-70
2024/01/01 02:57:03;;;;;;;6.15;2.05;;;8.10;99.90;;;;;;5055983;28;20124;-70
2024/01/01 02:59:29;;;;;;;11.73;2.22;;;8.10;99.90;;;;;;5062100;28;20025;-69
2024/01/01 03:01:54;;;;;;;9.88;2.50;;;8.00;99.90;;;;;;5057605;28;20043;-70
2024/01/01 03:04:20;;;;;;;14.10;2.35;;;8.00;99.90;;;;;;5049986;28;20013;-69
2024/01/01 03:06:46;;;;;;;12.50;1.95;;;7.90;99.90;;;;;;5060031;28;20021;-70
2024/01/01 03:09:11;;;;;;;7.47;2.00;;;7.90;99.90;;;;;;5030065;28;20566;-70
2024/01/01 03:11:37;;;;;;;10.70;2.03;;;7.90;99.90;;;;;;5063694;28;20032;-70
2024/01/01 03:14:03;;;;;;;12.82;2.90;;;7.90;99.90;;;;;;5041898;28;20070;-70
2024/01/01 03:16:28;;;;;;;13.32;2.70;;;7.90;99.90;;;;;;5061625;28;20029;-74
2024/01/01 03:18:54;;;;;;;14.35;2.40;;;7.90;99.90;;;;;;5053322;28;20025;-70
2024/01/01 03:21:19;;;;;;;10.07;2.42;;;7.90;99.90;;;;;;5055480;28;20067;-70
2024/01/01 03:23:46;;;;;;;8.55;2.25;;;7.90;99.90;;;;;;5061827;28;20047;-70
2024/01/01 03:26:12;;;;;;;15.02;2.45;;;7.90;99.90;;;;;;5057363;28;20021;-70
2024/01/01 03:28:37;;;;;;;16.23;2.90;;;7.90;99.90;;;;;;5053656;28;20131;-70
2024/01/01 03:31:04;;;;;;;10.88;2.33;;;7.90;99.90;;;;;;5041403;28;20100;-69
2024/01/01 03:33:33;;;;;;;10.82;2.25;;;7.90;99.90;;;;;;5061913;28;20244;-69
2024/01/01 03:35:59;;;;;;;10.18;2.30;;;7.90;99.90;;;;;;5053725;28;20020;-70
2024/01/01 03:38:25;;;;;;;7.65;1.80;;;8.00;99.90;;;;;;5054748;28;20402;-70
2024/01/01 03:40:50;;;;;;;8.00;1.92;;;8.00;99.90;;;;;;5061271;28;20382;-70
2024/01/01 03:43:16;;;;;;;8.65;2.20;;;8.00;99.90;;;;;;5052894;28;20470;-69
2024/01/01 03:45:41;;;;;;;14.20;2.00;;;8.00;99.90;;;;;;5060899;28;20044;-69
2024/01/01 03:48:08;;;;;;;13.45;3.00;;;8.00;99.90;;;;;;5037880;28;20117;-70
2024/01/01 03:50:34;;;;;;;7.75;2.17;;;8.00;99.90;;;;;;5052733;28;20033;-70
2024/01/01 03:52:59;;;;;;;13.32;2.20;;;8.00;99.90;;;;;;5060536;28;20025;-69
2024/01/01 03:55:25;;;;;;;17.45;2.55;;;8.10;99.90;;;;;;5059737;28;20028;-69
2024/01/01 03:57:51;;;;;;;12.35;3.22;;;8.00;99.90;;;;;;5035366;28;20025;-69
2024/01/01 04:00:17;;;;;;;14.52;2.58;;;8.00;99.90;;;;;;5056238;28;20028;-69
2024/01/01 04:02:42;;;;;;;12.45;2.13;;;8.00;99.90;;;;;;5061103;28;20477;-69
2024/01/01 04:05:11;;;;;;;15.68;2.47;;;8.00;99.90;;;;;;5037384;28;20242;-70
2024/01/01 04:07:37;;;;;;;10.52;2.22;;;8.00;99.90;;;;;;5052573;28;20017;-69
2024/01/01 04:10:04;;;;;;;13.25;2.17;;;8.00;99.90;;;;;;5042122;28;20021;-69
2024/01/01 04:12:29;;;;;;;12.27;2.30;;;8.00;99.90;;;;;;5032391;28;20017;-71
2024/01/01 04:14:55;;;;;;;11.35;2.90;;;8.10;99.90;;;;;;5042742;28;20103;-70
2024/01/01 04:17:21;;;;;;;10.60;2.38;;;8.10;99.90;;;;;;5053640;28;20025;-69
2024/01/01 04:19:47;;;;;;;11.95;2.38;;;8.10;99.90;;;;;;5035684;28;20017;-69
2024/01/01 04:22:18;;;;;;;9.10;2.03;;;8.10;99.90;;;;;;5042944;28;20372;-70
2024/01/01 04:24:44;;;;;;;9.75;1.98;;;8.10;99.90;;;;;;5058863;28;20107;-70
2024/01/01 04:27:10;;;;;;;10.95;2.22;;;8.10;99.90;;;;;;5052344;28;20047;-70
2024/01/01 04:29:36;;;;;;;13.43;2.90;;;8.10;99.90;;;;;;5057265;28;20078;-69
2024/01/01 04:32:02;;;;;;;13.90;2.72;;;8.10;99.90;;;;;;5060168;28;20446;-70
2024/01/01 04:34:27;;;;;;;10.52;2.53;;;8.20;99.90;;;;;;5054959;28;20492;-74
2024/01/01 04:36:53;;;;;;;12.55;2.55;;;8.20;99.90;;;;;;5052221;28;20025;-70
2024/01/01 04:39:19;;;;;;;12.30;2.10;;;8.20;99.90;;;;;;5060378;28;20572;-69
2024/01/01 04:41:44;;;;;;;14.57;2.63;;;8.20;99.90;;;;;;5058182;28;20447;-69
2024/01/01 04:44:10;;;;;;;11.43;2.33;;;8.20;99.90;;;;;;5034504;28;20487;-70
2024/01/01 04:46:36;;;;;;;10.82;1.80;;;8.30;99.90;;;;;;5056214;28;20485;-70
2024/01/01 04:49:05;;;;;;;10.88;2.05;;;8.20;99.90;;;;;;5042419;28;20036;-69
2024/01/01 04:51:31;;;;;;;12.25;2.40;;;8.20;99.90;;;;;;5054664;28;20021;-70
2024/01/01 04:53:56;;;;;;;12.05;2.17;;;8.20;99.90;;;;;;5052276;28;20469;-70
2024/01/01 04:56:23;;;;;;;11.45;2.30;;;8.20;99.90;;;;;;5059705;28;20027;-70
2024/01/01 04:58:50;;;;;;;12.93;1.95;;;8.20;99.90;;;;;;5040709;28;20040;-70
2024/01/01 05:01:16;;;;;;;12.65;2.72;;;8.20;99.90;;;;;;5051770;28;20502;-69
2024/01/01 05:03:42;;;;;;;9.00;1.77;;;8.20;99.90;;;;;;5055280;28;20021;-71
2024/01/01 05:06:08;;;;;;;12.05;2.00;;;8.20;99.90;;;;;;5056816;28;20025;-69
2024/01/01 05:08:33;;;;;;;8.73;1.95;;;8.20;99.90;;;;;;5055035;28;20586;-69
2024/01/01 05:11:03;;;;;;;12.90;1.80;;;8.20;99.90;;;;;;5051671;28;20210;-69
2024/01/01 05:13:29;;;;;;;12.90;2.80;;;8.20;99.90;;;;;;5030527;28;20025;-69
2024/01/01 05:15:54;;;;;;;13.98;1.85;;;8.20;99.90;;;;;;5054760;28;20501;-70
2024/01/01 05:18:20;;;;;;;13.30;2.10;;;8.20;99.90;;;;;;5052593;28;20032;-70
2024/01/01 05:20:45;;;;;;;13.00;2.10;;;8.20;99.90;;;;;;5062769;28;20021;-69
2024/01/01 05:23:11;;;;;;;12.45;2.75;;;8.10;99.90;;;;;;5063430;28;20529;-69
2024/01/01 05:25:37;;;;;;;14.45;2.25;;;8.10;99.90;;;;;;5055511;28;20513;-71
2024/01/01 05:28:05;;;;;;;9.32;1.92;;;8.00;99.90;;;;;;5058969;28;20029;-70
2024/01/01 05:30:31;;;;;;;14.38;2.08;;;8.00;99.90;;;;;;5063686;28;20017;-69
2024/01/01 05:32:57;;;;;;;10.57;1.88;;;8.00;99.90;;;;;;5049809;28;20032;-68
2024/01/01 05:35:22;;;;;;;6.72;1.80;;;8.00;99.90;;;;;;5054132;28;20024;-71
2024/01/01 05:37:48;;;;;;;12.20;2.38;;;8.00;99.90;;;;;;5061866;28;20517;-69
2024/01/01 05:40:14;;;;;;;12.38;1.98;;;8.00;99.90;;;;;;5045311;28;20496;-70
2024/01/01 05:42:39;;;;;;;12.38;2.80;;;8.00;99.90;;;;;;5055254;28;20020;-70
2024/01/01 05:45:06;;;;;;;10.77;2.35;;;8.00;99.90;;;;;;5058254;28;20470;-70
2024/01/01 05:47:31;;;;;;;11.00;2.03;;;7.90;99.90;;;;;;5063340;28;20198;-70
2024/01/01 05:49:57;;;;;;;12.48;2.25;;;7.90;99.90;;;;;;5049566;28;20100;-70
2024/01/01 05:52:23;;;;;;;10.60;1.90;;;7.90;99.90;;;;;;5063533;28;20075;-69
2024/01/01 05:54:49;;;;;;;12.30;2.35;;;7.90;99.90;;;;;;5056762;28;20103;-69
2024/01/01 05:57:14;;;;;;;10.32;2.20;;;7.90;99.90;;;;;;5055634;28;20074;-69
2024/01/01 05:59:40;;;;;;;15.43;2.55;;;8.00;99.90;;;;;;5045183;28;20499;-69
2024/01/01 06:02:07;;;;;;;9.82;1.80;;;8.00;99.90;;;;;;5042693;28;20158;-70
2024/01/01 06:04:32;;;;;;;12.10;2.00;;;8.00;99.90;;;;;;5037275;28;20891;-70
2024/01/01 06:07:06;;;;;;;10.63;1.98;;;8.00;99.90;;;;;;5059200;28;20029;-69
2024/01/01 06:09:34;;;;;;;14.75;1.92;;;8.10;99.90;;;;;;5063291;28;20043;-70
2024/01/01 06:12:00;;;;;;;12.32;2.05;;;8.00;99.90;;;;;;5052761;28;20021;-69
2024/01/01 06:14:25;;;;;;;9.18;1.92;;;8.10;99.90;;;;;;5060226;28;20024;-70
2024/01/01 06:16:51;;;;;;;13.30;1.95;;;8.00;99.90;;;;;;5054654;28;20051;-70
2024/01/01 06:19:17;;;;;;;10.68;2.13;;;8.00;99.90;;;;;;5060153;28;20074;-70
2024/01/01 06:21:42;;;;;;;13.90;2.47;;;8.00;99.90;;;;;;5062914;28;20044;-70
2024/01/01 06:24:08;;;;;;;11.38;2.10;;;8.00;99.90;;;;;;5049278;28;20033;-69
2024/01/01 06:26:34;;;;;;;10.70;2.13;;;8.00;99.90;;;;;;5062044;28;20031;-70
2024/01/01 06:28:59;;;;;;;8.80;1.98;;;8.00;99.90;;;;;;5037037;28;20505;-70
2024/01/01 06:31:25;;;;;;;9.38;2.60;;;7.90;99.90;;;;;;5057253;28;20059;-69
2024/01/01 06:33:50;;;;;;;12.75;2.10;;;7.90;99.90;;;;;;5062888;28;20096;-69
2024/01/01 06:36:16;;;;;;;9.77;2.70;;;7.90;99.90;;;;;;5057331;28;20020;-69
2024/01/01 06:38:42;;;;;;;11.85;2.33;;;7.90;99.90;;;;;;5054376;28;20045;-69
2024/01/01 06:41:08;;;;;;;16.83;2.92;;;7.90;99.90;;;;;;5061542;28;20057;-69
2024/01/01 06:43:34;;;;;;;12.55;2.38;;;7.90;99.90;;;;;;5043518;28;20109;-69
2024/01/01 06:45:59;;;;;;;13.35;2.22;;;7.90;99.90;;;;;;5054126;28;20020;-69
2024/01/01 06:48:25;;;;;;;12.30;2.30;;;7.90;99.90;;;;;;5058171;28;20025;-69
2024/01/01 06:50:51;;;;;;;10.15;2.10;;;7.90;99.90;;;;;;5062009;28;20553;-70
2024/01/01 06:53:17;;;;;;;8.07;1.95;;;7.90;99.90;;;;;;5057492;28;20554;-70
2024/01/01 06:55:43;;;;;;;11.90;2.13;;;7.80;99.90;;;;;;5054211;28;20032;-71
2024/01/01 06:58:08;;;;;;;13.13;2.42;;;7.90;99.90;;;;;;5061346;28;20478;-69
2024/01/01 07:00:34;;;;;;;11.40;1.75;;;7.90;99.90;;;;;;5061030;28;20528;-69
2024/01/01 07:02:59;;;;;;;11.02;1.95;;;7.90;99.90;;;;;;5054891;28;20074;-68
2024/01/01 07:05:28;;;;;;;11.10;2.00;;;7.90;99.90;;;;;;5052859;28;20033;-69
2024/01/01 07:07:54;;;;;;;12.00;2.10;;;7.90;99.90;;;;;;5059024;28;20625;-69
2024/01/01 07:10:20;;;;;;;10.57;2.05;;;7.90;99.90;;;;;;5057430;28;20104;-69
2024/01/01 07:12:46;;;;;;;11.18;2.30;;;7.90;99.90;;;;;;5063661;28;20115;-69
2024/01/01 07:15:12;;;;;;;8.75;2.08;;;7.80;99.90;;;;;;5036072;28;20020;-69
2024/01/01 07:17:37;;;;;;;12.73;2.22;;;7.80;99.90;;;;;;5058162;28;20028;-69
2024/01/01 07:20:06;;;;;;;10.93;2.58;;;7.80;99.90;;;;;;5049088;28;20107;-69
2024/01/01 07:22:32;;;;;;;11.27;2.03;;;7.80;99.90;;;;;;5060074;28;20025;-69
2024/01/01 07:24:57;;;;;;;13.00;2.47;;;7.80;99.90;;;;;;5060386;28;20791;-68
2024/01/01 07:27:23;;;;;;;9.02;2.05;;;7.80;99.90;;;;;;5053567;28;20025;-71
2024/01/01 07:29:49;;;;;;;12.65;2.05;;;7.80;99.90;;;;;;5057712;28;20035;-69
2024/01/01 07:32:14;;;;;;;10.45;2.25;;;7.80;99.90;;;;;;5062965;28;20587;-69
2024/01/01 07:34:40;;;;;;;12.18;2.15;;;7.80;99.90;;;;;;5047673;28;20490;-69
2024/01/01 07:37:06;;;;;;;10.57;1.95;;;7.80;99.90;;;;;;5017164;28;20056;-69
2024/01/01 07:39:32;;;;;;;13.93;2.53;;;7.80;99.90;;;;;;5059637;28;20150;-69
2024/01/01 07:41:58;;;;;;;13.25;2.50;;;7.80;99.90;;;;;;5059195;28;20658;-69
2024/01/01 07:44:24;;;;;;;13.43;3.05;;;7.80;99.90;;;;;;5053209;28;20074;-69
2024/01/01 07:46:50;;;;;;;11.13;2.35;;;7.80;99.90;;;;;;5055432;28;20482;-69
2024/01/01 07:49:16;;;;;;;10.80;2.45;;;7.80;99.90;;;;;;5043554;28;20481;-68
2024/01/01 07:51:42;;;;;;;15.85;3.20;;;7.80;99.90;;;;;;5038806;28;20502;-68
2024/01/01 07:54:07;;;;;;;9.75;2.33;;;7.90;99.90;;;;;;5052508;28;20027;-69
2024/01/01 07:56:33;;;;;;;13.02;2.35;;;7.90;99.90;;;;;;5041131;28;20039;-69
2024/01/01 07:58:59;;;;;;;15.45;2.40;;;7.90;99.90;;;;;;5042669;28;20393;-69
2024/01/01 08:01:42;;;;;;;12.35;2.55;;;7.90;99.90;;;;;;5035047;28;20037;-69
2024/01/01 08:04:08;;;;;;;9.82;2.05;;;7.90;99.90;;;;;;5053217;28;20021;-69
2024/01/01 08:06:34;;;;;;;11.73;2.28;;;7.80;99.90;;;;;;5060857;28;20029;-69
2024/01/01 08:09:00;;;;;;;10.55;2.17;;;7.80;99.90;;;;;;5042024;28;20114;-69
2024/01/01 08:11:26;;;;;;;11.57;2.70;;;7.90;99.90;;;;;;5052425;28;20158;-70
2024/01/01 08:13:52;;;;;;;9.90;2.60;;;7.80;99.90;;;;;;5035618;28;20119;-70
2024/01/01 08:16:21;;;;;;;10.63;2.63;;;7.90;99.90;;;;;;5054083;28;20524;-70
2024/01/01 08:18:48;;;;;;;9.70;2.05;;;7.90;99.90;;;;;;5039999;28;20024;-70
2024/01/01 08:21:13;;;;;;;13.95;2.50;;;7.90;99.90;;;;;;5055571;28;20442;-70
2024/01/01 08:23:40;;;;;;;11.38;2.22;;;7.90;99.90;;;;;;5060881;28;20092;-70
2024/01/01 08:26:06;;;;;;;9.23;2.75;;;7.90;99.90;;;;;;5055773;28;20019;-70
2024/01/01 08:28:32;;;;;;;10.98;2.25;;;8.00;99.90;;;;;;5034575;28;20029;-70
2024/01/01 08:30:59;;;;;;;12.85;2.50;;;7.90;99.90;;;;;;5022936;28;20125;-71
2024/01/01 08:33:25;;;;;;;9.80;2.05;;;7.90;99.90;;;;;;5039937;28;20032;-70
2024/01/01 08:35:55;;;;;;;14.38;2.58;;;7.90;99.90;;;;;;5033068;28;20086;-70
2024/01/01 08:38:21;;;;;;;14.52;3.00;;;7.90;99.90;;;;;;5050394;28;20044;-70
2024/01/01 08:40:47;;;;;;;17.17;2.47;;;7.90;99.90;;;;;;5049098;28;20031;-70
2024/01/01 08:43:13;;;;;;;13.93;2.45;;;7.90;99.90;;;;;;5028493;28;20035;-70
2024/01/01 08:45:39;;;;;;;14.65;2.72;;;7.90;99.90;;;;;;5034280;28;20032;-71
2024/01/01 08:48:05;;;;;;;13.68;2.70;;;8.00;99.90;;;;;;5058216;28;20021;-70
2024/01/01 08:50:31;;;;;;;15.32;3.70;;;8.00;99.90;;;;;;5057200;28;20013;-70
2024/01/01 08:52:56;;;;;;;12.02;2.53;;;8.00;99.90;;;;;;5060852;28;20054;-70
2024/01/01 08:55:22;;;;;;;13.32;3.47;;;8.00;99.90;;;;;;5029594;28;20032;-70
2024/01/01 08:57:47;;;;;;;9.32;2.25;;;7.90;99.90;;;;;;5041776;28;20035;-70
2024/01/01 09:00:16;;;;;;;14.95;2.70;;;7.90;99.90;;;;;;5055264;28;20025;-70
2024/01/01 09:02:42;;;;;;;12.52;2.63;;;7.90;99.90;;;;;;5023577;28;20025;-70
2024/01/01 09:05:08;;;;;;;16.13;3.13;;;7.90;99.90;;;;;;5034153;28;20030;-69
2024/01/01 09:07:33;;;;;;;13.38;3.00;;;7.90;99.90;;;;;;5031697;28;20033;-70
2024/01/01 09:10:01;;;;;;;14.70;2.65;;;7.80;99.90;;;;;;5042914;28;20095;-70
2024/01/01 09:12:30;;;;;;;11.82;2.85;;;7.80;99.90;;;;;;5038459;28;20021;-70
2024/01/01 09:14:56;;;;;;;10.27;2.85;;;7.80;99.90;;;;;;5046218;28;20022;-69
2024/01/01 09:17:22;;;;;;;10.57;2.75;;;7.80;99.90;;;;;;5040748;28;20017;-69
2024/01/01 09:19:48;;;;;;;16.17;2.72;;;7.80;99.90;;;;;;5024729;28;20091;-70
2024/01/01 09:22:14;;;;;;;14.30;3.08;;;7.80;99.90;;;;;;5057508;28;20021;-70
2024/01/01 09:24:41;;;;;;;12.73;3.03;;;7.80;99.90;;;;;;5062482;28;20013;-69
2024/01/01 09:27:07;;;;;;;14.18;2.88;;;7.80;99.90;;;;;;5059560;28;20510;-70
2024/01/01 09:29:32;;;;;;;12.00;2.97;;;7.70;99.90;;;;;;5043168;28;20065;-70
2024/01/01 09:31:58;;;;;;;14.75;3.50;;;7.70;99.90;;;;;;5030552;28;20033;-70
2024/01/01 09:34:24;;;;;;;9.27;2.72;;;7.70;99.90;;;;;;5059521;28;20029;-70
2024/01/01 09:36:49;;;;;;;15.95;3.08;;;7.70;99.90;;;;;;5026049;28;20057;-69
2024/01/01 09:39:15;;;;;;;11.32;2.67;;;7.70;99.90;;;;;;5012265;28;20084;-70
2024/01/01 09:41:40;;;;;;;14.88;3.10;;;7.70;99.90;;;;;;5035504;28;20017;-69
2024/01/01 09:44:10;;;;;;;11.43;2.67;;;7.70;99.90;;;;;;5033059;28;20029;-70
2024/01/01 09:46:35;;;;;;;13.00;3.00;;;7.70;99.90;;;;;;5036100;28;20014;-69
2024/01/01 09:49:02;;;;;;;8.10;2.22;;;7.70;99.90;;;;;;5044912;28;20064;-69
2024/01/01 09:51:46;;;;;;;11.15;2.83;;;7.70;99.90;;;;;;5053261;28;20108;-69
2024/01/01 09:54:12;;;;;;;13.38;2.92;;;7.70;99.90;;;;;;5038669;28;20566;-69
2024/01/01 09:56:37;;;;;;;12.13;2.45;;;7.70;99.90;;;;;;5050534;28;20111;-74
2024/01/01 09:59:06;;;;;;;12.30;2.13;;;7.60;99.90;;;;;;5038376;28;20029;-70
2024/01/01 10:01:33;;;;;;;9.27;2.50;;;7.70;99.90;;;;;;5047218;28;20033;-68
2024/01/01 10:04:02;;;;;;;9.38;2.20;;;7.70;99.90;;;;;;5053530;28;20036;-69
2024/01/01 10:06:29;;;;;;;11.13;2.25;;;7.70;99.90;;;;;;5059882;28;20025;-69
2024/01/01 10:09:11;;;;;;;10.70;2.13;;;7.70;99.90;;;;;;5045645;28;20032;-69
2024/01/01 10:11:40;;;;;;;9.10;2.10;;;7.80;99.90;;;;;;5036364;28;20493;-69
2024/01/01 10:14:07;;;;;;;12.90;1.90;;;7.80;99.90;;;;;;5042949;28;20096;-69
2024/01/01 10:16:33;;;;;;;10.05;1.60;;;7.80;99.90;;;;;;5028720;28;20052;-69
2024/01/01 10:19:04;;;;;;;6.18;2.05;;;7.80;99.90;;;;;;5055432;28;20023;-69
2024/01/01 10:21:35;;;;;;;9.98;2.08;;;7.80;99.90;;;;;;5044354;28;20555;-68
2024/01/01 10:24:13;;;;;;;;;;;7.80;99.90;;;;;;5060760;28;20020;-69
2024/01/01 10:26:43;;;;;;;9.55;2.13;;;7.80;99.90;;;;;;5047937;28;19909;-69
2024/01/01 10:29:12;;;;;;;9.27;2.22;;;7.80;99.90;;;;;;5028498;28;20017;-69
2024/01/01 10:31:46;;;;;;;9.52;2.47;;;7.70;99.90;;;;;;5055871;28;20184;-69
2024/01/01 10:34:12;;;;;;;10.23;2.08;;;7.70;99.90;;;;;;5045328;28;20032;-69
2024/01/01 10:36:40;;;;;;;9.18;2.47;;;7.70;99.90;;;;;;5041601;28;20026;-69
2024/01/01 10:39:06;;;;;;;10.57;2.20;;;7.70;99.90;;;;;;5030163;28;20056;-69
2024/01/01 10:41:35;;;;;;;11.73;2.20;;;7.70;99.90;;;;;;5044977;28;20020;-69
2024/01/01 10:44:09;;;;;;;10.80;2.22;;;7.70;99.90;;;;;;5051533;28;20013;-69
2024/01/01 10:46:39;;;;;;;6.63;1.75;;;7.70;99.90;;;;;;5039686;28;20021;-69
2024/01/01 10:49:16;;;;;;;13.57;2.60;;;7.70;99.90;;;;;;5037610;28;20039;-69
2024/01/01 10:52:03;;;;;;;12.88;2.30;;;7.70;99.90;;;;;;5051296;28;20911;-69
2024/01/01 10:54:55;;;;;;;11.02;2.00;;;7.70;99.90;;;;;;5031188;28;20037;-69
2024/01/01 10:57:54;;;;;;;5.82;1.80;;;7.70;99.90;;;;;;5028905;28;20095;-72
2024/01/01 11:00:44;;;;;;;6.45;1.90;;;7.80;99.90;;;;;;5040687;28;20055;-69
2024/01/01 11:03:13;;;;;;;10.70;2.27;;;7.80;99.90;;;;;;5044379;28;20111;-69
2024/01/01 11:05:40;;;;;;;9.38;2.00;;;8.00;99.90;;;;;;5033366;28;20013;-68
2024/01/01 11:08:06;;;;;;;9.07;2.00;;;8.10;99.90;;;;;;5055925;28;20904;-68
2024/01/01 11:10:45;;;;;;;7.50;2.30;;;8.20;99.90;;;;;;5048009;28;20052;-68
2024/01/01 11:13:26;;;;;;;8.57;2.08;;;8.20;99.90;;;;;;5031259;28;20045;-69
2024/01/01 11:16:03;;;;;;;10.07;2.30;;;8.20;99.90;;;;;;5036069;28;20029;-68
2024/01/01 11:18:38;;;;;;;10.02;2.38;;;8.20;99.90;;;;;;5041262;28;20255;-68
2024/01/01 11:21:06;;;;;;;10.02;2.83;;;8.10;99.90;;;;;;5033107;28;20021;-68
2024/01/01 11:23:41;;;;;;;9.15;2.25;;;8.10;99.90;;;;;;5021444;28;20083;-68
2024/01/01 11:26:34;;;;;;;8.38;1.73;;;8.10;99.90;;;;;;5030718;28;20104;-68
2024/01/01 11:29:16;;;;;;;13.00;2.03;;;8.10;99.90;;;;;;5014018;28;20185;-68
2024/01/01 11:31:42;;;;;;;7.15;1.58;;;8.10;99.90;;;;;;5053365;28;20035;-68
2024/01/01 11:34:09;;;;;;;6.25;1.60;;;8.10;99.90;;;;;;5062116;28;20025;-68
2024/01/01 11:36:40;;;;;;;8.75;2.30;;;8.10;99.90;;;;;;5060172;28;20032;-68
2024/01/01 11:39:06;;;;;;;6.43;1.80;;;8.10;99.90;;;;;;5045240;28;20537;-68
2024/01/01 11:41:33;;;;;;;7.25;1.95;;;8.10;99.90;;;;;;5043808;28;20040;-68
2024/01/01 11:44:13;;;;;;;9.65;2.08;;;8.10;99.90;;;;;;5024221;28;20513;-68
2024/01/01 11:46:39;;;;;;;9.65;2.25;;;8.10;99.90;;;;;;5050455;28;20032;-67
2024/01/01 11:49:05;;;;;;;7.00;1.67;;;8.00;99.90;;;;;;5042977;28;20067;-69
2024/01/01 11:51:53;;;;;;;12.18;2.30;;;8.10;99.90;;;;;;5042604;28;20389;-70
2024/01/01 11:54:19;;;;;;;10.00;2.80;;;8.20;99.90;;;;;;5038573;28;20017;-69
2024/01/01 11:56:46;;;;;;;10.70;2.28;;;8.30;99.90;;;;;;5031284;28;20030;-68
2024/01/01 11:59:13;;;;;;;9.45;1.80;;;8.30;99.90;;;;;;5044329;28;20086;-69
2024/01/01 12:01:40;;;;;;;11.90;2.65;;;8.30;99.90;;;;;;5064850;28;20023;-68
2024/01/01 12:04:09;;;;;;;6.45;1.48;;;8.30;99.90;;;;;;5057458;28;20028;-70
2024/01/01 12:06:35;;;;;;;6.25;1.48;;;8.30;99.90;;;;;;5037516;28;20017;-69
2024/01/01 12:09:09;;;;;;;10.68;1.85;;;8.30;99.90;;;;;;5036548;28;20393;-70
2024/01/01 12:11:36;;;;;;;8.80;1.95;;;8.30;99.90;;;;;;5047453;28;20120;-69
2024/01/01 12:14:02;;;;;;;10.68;2.15;;;8.20;99.90;;;;;;5034920;28;20032;-70
2024/01/01 12:16:30;;;;;;;13.98;2.30;;;8.20;99.90;;;;;;5039720;28;20510;-70
2024/01/01 12:19:04;;;;;;;15.15;2.55;;;8.20;99.90;;;;;;5034401;28;20478;-67
2024/01/01 12:21:44;;;;;;;9.27;1.80;;;8.20;99.90;;;;;;5049347;28;20040;-68
2024/01/01 12:24:14;;;;;;;6.40;1.63;;;8.20;99.90;;;;;;5045148;28;20088;-69
2024/01/01 12:26:40;;;;;;;8.52;1.77;;;8.20;99.90;;;;;;5050216;28;20527;-69
2024/01/01 12:29:13;;;;;;;11.35;1.80;;;8.20;99.90;;;;;;5045729;28;20095;-69
2024/01/01 12:31:46;;;;;;;10.35;1.80;;;8.10;99.90;;;;;;5048121;28;20077;-70
2024/01/01 12:34:14;;;;;;;12.95;2.40;;;8.10;99.90;;;;;;5060645;28;20021;-69
2024/01/01 12:36:40;;;;;;;9.15;2.15;;;8.20;99.90;;;;;;5040226;28;20115;-69
2024/01/01 12:39:06;;;;;;;13.90;2.67;;;8.40;99.90;;;;;;5051920;28;20057;-69
2024/01/01 12:41:32;;;;;;;9.63;2.30;;;8.60;99.90;;;;;;5056558;28;20470;-69
2024/01/01 12:44:00;;;;;;;16.73;2.85;;;8.70;99.90;;;;;;5042100;28;20432;-69
2024/01/01 12:46:26;;;;;;;14.60;3.47;;;8.80;99.90;;;;;;5054730;28;20025;-70
2024/01/01 12:48:52;;;;;;;18.08;3.10;;;8.80;99.90;;;;;;5051832;28;20032;-69
2024/01/01 12:51:21;;;;;;;14.80;2.80;;;8.90;99.90;;;;;;5041979;28;20028;-69